createdAt,value
2023-11-09T00:00:54.331Z,99339.22
2023-11-09T00:03:21.953Z,99335.52
2023-11-09T00:05:51.238Z,99342.42
2023-11-09T00:08:19.242Z,99341.30
2023-11-09T00:10:46.801Z,99344.09
2023-11-09T00:13:14.449Z,99345.90
2023-11-09T00:15:42.312Z,99350.60
2023-11-09T00:18:09.831Z,99347.10
2023-11-09T00:20:38.100Z,99348.39
2023-11-09T00:23:05.757Z,99348.98
2023-11-09T00:25:33.288Z,99350.53
2023-11-09T00:28:00.879Z,99349.38
2023-11-09T00:30:30.114Z,99356.47
2023-11-09T00:32:57.635Z,99353.89
2023-11-09T00:35:25.324Z,99353.15
2023-11-09T00:37:52.973Z,99350.09
2023-11-09T00:40:21.318Z,99354.01
2023-11-09T00:42:48.975Z,99353.87
2023-11-09T00:45:16.580Z,99360.25
2023-11-09T00:47:45.152Z,99360.70
2023-11-09T00:50:15.676Z,99360.97
2023-11-09T00:52:43.241Z,99364.38
2023-11-09T00:55:10.911Z,99366.31
2023-11-09T00:57:38.550Z,99362.92
2023-11-09T01:00:08.584Z,99367.65
2023-11-09T01:02:39.521Z,99363.40
2023-11-09T01:05:07.885Z,99360.92
2023-11-09T01:07:35.471Z,99363.20
2023-11-09T01:10:03.059Z,99356.98
2023-11-09T01:12:31.173Z,99356.08
2023-11-09T01:14:58.661Z,99351.30
2023-11-09T01:17:29.014Z,99355.02
2023-11-09T01:19:57.256Z,99353.72
2023-11-09T01:22:24.884Z,99349.91
2023-11-09T01:24:52.462Z,99355.58
2023-11-09T01:27:19.909Z,99356.91
2023-11-09T01:29:47.536Z,99360.67
2023-11-09T01:32:15.149Z,99360.60
2023-11-09T01:34:43.750Z,99360.36
2023-11-09T01:37:13.032Z,99360.39
2023-11-09T01:39:41.086Z,99360.64
2023-11-09T01:42:09.147Z,99361.38
2023-11-09T01:44:37.256Z,99363.12
2023-11-09T01:47:04.924Z,99365.28
2023-11-09T01:49:33.370Z,99367.71
2023-11-09T01:52:00.988Z,99366.22
2023-11-09T01:54:28.445Z,99368.56
2023-11-09T01:56:55.994Z,99371.17
2023-11-09T01:59:23.629Z,99367.13
2023-11-09T02:01:53.956Z,99364.98
2023-11-09T02:04:21.565Z,99363.73
2023-11-09T02:06:49.506Z,99364.98
2023-11-09T02:09:16.964Z,99362.74
2023-11-09T02:11:44.385Z,99365.61
2023-11-09T02:14:11.881Z,99371.17
2023-11-09T02:16:39.445Z,99378.81
2023-11-09T02:19:08.985Z,99380.02
2023-11-09T02:21:36.734Z,99373.36
2023-11-09T02:24:10.369Z,99375.40
2023-11-09T02:26:38.391Z,99379.41
2023-11-09T02:29:07.093Z,99372.73
2023-11-09T02:31:34.544Z,99374.14
2023-11-09T02:34:02.727Z,99372.73
2023-11-09T02:36:31.236Z,99374.14
2023-11-09T02:38:58.685Z,99377.42
2023-11-09T02:41:26.211Z,99382.04
2023-11-09T02:43:53.665Z,99384.05
2023-11-09T02:46:21.346Z,99386.69
2023-11-09T02:48:48.937Z,99387.21
2023-11-09T02:51:16.378Z,99389.55
2023-11-09T02:53:44.643Z,99394.71
2023-11-09T02:56:12.130Z,99395.89
2023-11-09T02:58:40.663Z,99397.69
2023-11-09T03:01:08.108Z,99400.58
2023-11-09T03:03:35.652Z,99402.24
2023-11-09T03:06:03.608Z,99403.70
2023-11-09T03:08:32.408Z,99407.84
2023-11-09T03:10:59.953Z,99414.24
2023-11-09T03:13:27.938Z,99416.30
2023-11-09T03:15:55.425Z,99415.16
2023-11-09T03:18:23.068Z,99417.18
2023-11-09T03:20:51.786Z,99418.98
2023-11-09T03:23:20.029Z,99421.96
2023-11-09T03:25:47.660Z,99425.77
2023-11-09T03:28:15.341Z,99431.27
2023-11-09T03:30:42.887Z,99424.98
2023-11-09T03:33:10.393Z,99422.92
2023-11-09T03:35:38.069Z,99433.17
2023-11-09T03:38:05.561Z,99426.06
2023-11-09T03:40:33.149Z,99429.75
2023-11-09T03:43:00.626Z,99429.58
2023-11-09T03:45:28.675Z,99431.77
2023-11-09T03:47:56.347Z,99430.94
2023-11-09T03:50:26.617Z,99433.41
2023-11-09T03:52:54.388Z,99431.61
2023-11-09T03:55:21.979Z,99433.13
2023-11-09T03:57:49.509Z,99435.30
2023-11-09T04:00:19.850Z,99440.59
2023-11-09T04:02:47.567Z,99440.61
2023-11-09T04:05:15.748Z,99443.09
2023-11-09T04:07:44.711Z,99444.13
2023-11-09T04:10:14.103Z,99455.40
2023-11-09T04:12:42.158Z,99450.68
2023-11-09T04:15:10.692Z,99447.81
2023-11-09T04:17:38.631Z,99450.50
2023-11-09T04:20:08.738Z,99449.00
2023-11-09T04:22:36.836Z,99449.73
2023-11-09T04:25:05.388Z,99450.81
2023-11-09T04:27:36.029Z,99454.56
2023-11-09T04:30:05.092Z,99464.21
2023-11-09T04:32:33.632Z,99465.30
2023-11-09T04:35:01.295Z,99461.02
2023-11-09T04:37:29.647Z,99463.44
2023-11-09T04:39:59.892Z,99465.17
2023-11-09T04:42:30.680Z,99466.54
2023-11-09T04:44:58.518Z,99475.56
2023-11-09T04:47:27.053Z,99478.29
2023-11-09T04:49:59.923Z,99483.98
2023-11-09T04:52:32.340Z,99481.56
2023-11-09T04:55:12.225Z,99487.45
2023-11-09T04:57:59.218Z,99490.39
2023-11-09T05:00:47.241Z,99496.14
2023-11-09T05:03:35.248Z,99498.80
2023-11-09T05:06:21.541Z,99502.86
2023-11-09T05:08:49.000Z,99505.20
2023-11-09T05:11:18.811Z,99509.24
2023-11-09T05:13:46.232Z,99509.39
2023-11-09T05:16:14.040Z,99510.33
2023-11-09T05:18:44.949Z,99512.02
2023-11-09T05:21:12.537Z,99516.08
2023-11-09T05:23:40.121Z,99521.38
2023-11-09T05:26:07.754Z,99523.08
2023-11-09T05:28:36.146Z,99522.94
2023-11-09T05:31:04.382Z,99526.86
2023-11-09T05:33:31.941Z,99529.23
2023-11-09T05:36:01.636Z,99531.15
2023-11-09T05:38:29.162Z,99528.52
2023-11-09T05:40:56.679Z,99530.59
2023-11-09T05:43:24.149Z,99534.09
2023-11-09T05:45:51.682Z,99534.83
2023-11-09T05:48:19.216Z,99539.25
2023-11-09T05:50:46.878Z,99540.00
2023-11-09T05:53:14.560Z,99540.21
2023-11-09T05:55:42.118Z,99539.13
2023-11-09T05:58:10.262Z,99543.88
2023-11-09T06:00:37.825Z,99540.01
2023-11-09T06:03:05.354Z,99539.66
2023-11-09T06:05:33.031Z,99544.73
2023-11-09T06:08:01.777Z,99543.27
2023-11-09T06:10:31.789Z,99547.64
2023-11-09T06:12:59.942Z,99546.62
2023-11-09T06:15:27.909Z,99551.73
2023-11-09T06:17:57.282Z,99555.71
2023-11-09T06:20:25.345Z,99564.38
2023-11-09T06:22:54.590Z,99561.60
2023-11-09T06:25:23.683Z,99559.05
2023-11-09T06:27:51.397Z,99565.36
2023-11-09T06:30:19.096Z,99567.60
2023-11-09T06:32:46.754Z,99577.67
2023-11-09T06:35:19.902Z,99571.52
2023-11-09T06:37:47.520Z,99576.84
2023-11-09T06:40:18.960Z,99579.96
2023-11-09T06:42:51.639Z,99578.55
2023-11-09T06:45:19.338Z,99584.38
2023-11-09T06:47:46.953Z,99582.59
2023-11-09T06:50:14.839Z,99589.41
2023-11-09T06:52:43.153Z,99588.06
2023-11-09T06:55:11.446Z,99593.06
2023-11-09T06:57:40.995Z,99594.76
2023-11-09T07:00:08.953Z,99593.64
2023-11-09T07:02:36.403Z,99596.44
2023-11-09T07:05:04.461Z,99597.76
2023-11-09T07:07:35.951Z,99597.44
2023-11-09T07:10:05.469Z,99598.69
2023-11-09T07:12:33.233Z,99599.25
2023-11-09T07:15:02.179Z,99599.77
2023-11-09T07:17:29.745Z,99608.67
2023-11-09T07:19:58.935Z,99605.27
2023-11-09T07:22:26.690Z,99611.98
2023-11-09T07:25:07.973Z,99612.98
2023-11-09T07:27:41.092Z,99614.27
2023-11-09T07:30:09.134Z,99616.27
2023-11-09T07:32:36.908Z,99618.83
2023-11-09T07:35:05.514Z,99618.85
2023-11-09T07:37:33.791Z,99618.67
2023-11-09T07:40:01.664Z,99615.58
2023-11-09T07:42:29.567Z,99619.38
2023-11-09T07:44:59.017Z,99614.45
2023-11-09T07:47:27.006Z,99611.30
2023-11-09T07:49:55.521Z,99616.92
2023-11-09T07:52:24.030Z,99619.65
2023-11-09T07:54:57.551Z,99618.90
2023-11-09T07:57:25.790Z,99623.69
2023-11-09T07:59:54.860Z,99624.80
2023-11-09T08:02:33.317Z,99627.77
2023-11-09T08:05:01.387Z,99628.42
2023-11-09T08:07:29.184Z,99629.29
2023-11-09T08:09:57.774Z,99636.57
2023-11-09T08:12:25.756Z,99633.83
2023-11-09T08:14:53.334Z,99633.35
2023-11-09T08:17:25.757Z,99640.72
2023-11-09T08:20:00.207Z,99641.67
2023-11-09T08:22:28.368Z,99643.27
2023-11-09T08:24:56.140Z,99642.18
2023-11-09T08:27:23.587Z,99644.46
2023-11-09T08:29:51.422Z,99647.08
2023-11-09T08:32:22.052Z,99647.52
2023-11-09T08:34:55.918Z,99651.29
2023-11-09T08:37:23.952Z,99656.51
2023-11-09T08:39:52.746Z,99659.08
2023-11-09T08:42:21.825Z,99664.27
2023-11-09T08:44:49.339Z,99667.20
2023-11-09T08:47:17.363Z,99664.99
2023-11-09T08:49:45.214Z,99665.05
2023-11-09T08:52:13.879Z,99667.73
2023-11-09T08:54:42.480Z,99671.65
2023-11-09T08:57:10.109Z,99669.19
2023-11-09T08:59:37.762Z,99671.64
2023-11-09T09:02:05.525Z,99678.11
2023-11-09T09:04:33.184Z,99683.84
2023-11-09T09:07:01.472Z,99680.80
2023-11-09T09:09:37.634Z,99685.83
2023-11-09T09:12:09.544Z,99688.11
2023-11-09T09:14:37.372Z,99687.11
2023-11-09T09:17:07.209Z,99690.23
2023-11-09T09:19:38.044Z,99693.13
2023-11-09T09:22:06.601Z,99697.99
2023-11-09T09:24:34.379Z,99696.00
2023-11-09T09:27:04.900Z,99696.77
2023-11-09T09:29:32.489Z,99691.66
2023-11-09T09:32:06.534Z,99693.06
2023-11-09T09:34:35.957Z,99691.23
2023-11-09T09:37:04.155Z,99696.10
2023-11-09T09:39:34.632Z,99695.23
2023-11-09T09:42:03.923Z,99694.79
2023-11-09T09:44:31.899Z,99697.02
2023-11-09T09:47:26.692Z,99696.77
2023-11-09T09:49:55.473Z,99699.50
2023-11-09T09:52:24.107Z,99701.79
2023-11-09T09:54:52.208Z,99700.10
2023-11-09T09:57:23.558Z,99703.55
2023-11-09T10:02:51.420Z,99696.52
2023-11-09T10:05:20.102Z,99694.95
2023-11-09T10:08:05.039Z,99692.00
2023-11-09T10:10:36.504Z,99692.12
2023-11-09T10:13:09.482Z,99695.41
2023-11-09T10:15:38.672Z,99695.62
2023-11-09T10:18:08.512Z,99697.73
2023-11-09T10:20:37.817Z,99699.18
2023-11-09T10:23:09.562Z,99706.15
2023-11-09T10:25:38.297Z,99703.46
2023-11-09T10:28:09.811Z,99707.94
2023-11-09T10:30:45.738Z,99710.60
2023-11-09T10:33:19.232Z,99714.09
2023-11-09T10:35:47.871Z,99718.78
2023-11-09T10:38:21.727Z,99717.92
2023-11-09T10:41:14.336Z,99720.29
2023-11-09T10:43:37.895Z,99722.89
2023-11-09T10:46:09.606Z,99728.16
2023-11-09T10:48:42.480Z,99734.44
2023-11-09T10:51:11.517Z,99734.73
2023-11-09T10:53:42.623Z,99739.42
2023-11-09T10:56:15.174Z,99741.73
2023-11-09T10:58:46.639Z,99743.08
2023-11-09T11:01:19.268Z,99742.44
2023-11-09T11:03:52.837Z,99747.25
2023-11-09T11:06:24.958Z,99748.21
2023-11-09T11:08:55.609Z,99754.37
2023-11-09T11:11:32.352Z,99749.63
2023-11-09T11:14:07.035Z,99750.05
2023-11-09T11:16:59.574Z,99755.48
2023-11-09T11:19:39.036Z,99764.71
2023-11-09T11:22:51.859Z,99761.65
2023-11-09T11:25:58.392Z,99762.33
2023-11-09T11:28:29.512Z,99769.73
2023-11-09T11:31:05.250Z,99766.48
2023-11-09T11:33:33.324Z,99770.91
2023-11-09T11:36:01.684Z,99773.28
2023-11-09T11:38:31.058Z,99776.38
2023-11-09T11:41:23.812Z,99779.45
2023-11-09T11:43:54.168Z,99784.79
2023-11-09T11:46:25.439Z,99785.59
2023-11-09T11:48:58.802Z,99783.92
2023-11-09T11:53:01.267Z,99790.71
2023-11-09T11:55:33.049Z,99786.79
2023-11-09T11:58:03.904Z,99791.54
2023-11-09T12:00:39.592Z,99788.18
2023-11-09T12:03:17.773Z,99787.16
2023-11-09T12:05:45.493Z,99784.20
2023-11-09T12:08:15.799Z,99785.86
2023-11-09T12:10:42.983Z,99787.77
2023-11-09T12:13:14.908Z,99792.02
2023-11-09T12:15:42.651Z,99791.48
2023-11-09T12:22:47.946Z,99805.98
2023-11-09T12:25:15.011Z,99806.71
2023-11-09T12:27:42.452Z,99811.60
2023-11-09T12:30:12.167Z,99813.87
2023-11-09T12:32:42.946Z,99814.81
2023-11-09T12:35:20.299Z,99809.86
2023-11-09T12:38:00.930Z,99816.95
2023-11-09T12:40:32.102Z,99816.43
2023-11-09T12:43:00.225Z,99820.38
2023-11-09T12:45:27.995Z,99819.79
2023-11-09T12:47:57.347Z,99816.89
2023-11-09T12:53:47.598Z,99821.75
2023-11-09T12:56:20.431Z,99825.30
2023-11-09T12:59:02.567Z,99827.05
2023-11-09T13:01:30.967Z,99825.39
2023-11-09T13:03:58.860Z,99830.31
2023-11-09T13:06:27.928Z,99825.55
2023-11-09T13:09:27.506Z,99823.11
2023-11-09T13:13:25.631Z,99821.75
2023-11-09T13:16:05.151Z,99816.60
2023-11-09T13:18:36.819Z,99812.34
2023-11-09T13:21:08.046Z,99816.93
2023-11-09T13:24:00.882Z,99821.84
2023-11-09T13:26:29.495Z,99827.02
2023-11-09T13:29:16.799Z,99832.04
2023-11-09T13:31:45.191Z,99829.52
2023-11-09T13:34:17.815Z,99831.25
2023-11-09T13:37:05.987Z,99828.09
2023-11-09T13:39:52.191Z,99823.54
2023-11-09T13:42:39.331Z,99824.15
2023-11-09T13:45:28.354Z,99825.80
2023-11-09T13:48:02.999Z,99834.20
2023-11-09T13:50:33.412Z,99837.14
2023-11-09T13:53:27.428Z,99842.64
2023-11-09T13:56:08.126Z,99840.86
2023-11-09T13:58:40.925Z,99841.73
2023-11-09T14:01:09.917Z,99844.35
2023-11-09T14:03:40.856Z,99848.33
2023-11-09T14:06:13.236Z,99848.52
2023-11-09T14:08:47.402Z,99854.52
2023-11-09T14:11:18.498Z,99857.46
2023-11-09T14:13:49.730Z,99861.68
2023-11-09T14:16:24.779Z,99866.91
2023-11-09T14:19:00.924Z,99859.95
2023-11-09T14:21:37.543Z,99862.83
2023-11-09T14:24:06.185Z,99873.11
2023-11-09T14:26:36.521Z,99868.77
2023-11-09T14:29:12.245Z,99872.64
2023-11-09T14:31:40.959Z,99877.14
2023-11-09T14:34:12.319Z,99877.19
2023-11-09T14:36:52.181Z,99886.02
2023-11-09T14:39:38.521Z,99889.90
2023-11-09T14:42:07.443Z,99895.13
2023-11-09T14:44:43.796Z,99897.65
2023-11-09T14:47:15.687Z,99890.62
2023-11-09T14:49:52.002Z,99894.67
2023-11-09T14:52:42.069Z,99895.81
2023-11-09T14:55:15.525Z,99898.96
2023-11-09T14:57:44.065Z,99903.91
2023-11-09T15:00:12.314Z,99905.95
2023-11-09T15:02:39.999Z,99902.23
2023-11-09T15:05:12.855Z,99905.42
2023-11-09T15:07:47.556Z,99912.15
2023-11-09T15:10:16.961Z,99919.84
2023-11-09T15:12:44.814Z,99922.55
2023-11-09T15:15:14.755Z,99927.93
2023-11-09T15:17:45.281Z,99928.41
2023-11-09T15:20:33.667Z,99935.41
2023-11-09T15:23:07.524Z,99939.12
2023-11-09T15:25:35.384Z,99942.16
2023-11-09T15:28:03.896Z,99943.08
2023-11-09T15:30:32.326Z,99945.86
2023-11-09T15:33:01.086Z,99947.95
2023-11-09T15:35:30.586Z,99954.27
2023-11-09T15:38:01.436Z,99955.43
2023-11-09T15:41:09.972Z,99954.45
2023-11-09T15:43:19.738Z,99960.77
2023-11-09T15:45:53.092Z,99963.23
2023-11-09T15:48:20.923Z,99962.97
2023-11-09T15:50:51.372Z,99962.16
2023-11-09T15:53:19.779Z,99963.23
2023-11-09T15:55:48.177Z,99970.23
2023-11-09T15:58:18.973Z,99975.69
2023-11-09T16:00:57.497Z,99979.08
2023-11-09T16:03:25.772Z,99980.26
2023-11-09T16:05:53.701Z,99986.78
2023-11-09T16:08:21.458Z,99990.83
2023-11-09T16:10:49.838Z,99990.63
2023-11-09T16:13:18.564Z,99995.71
2023-11-09T16:15:46.185Z,99995.77
2023-11-09T16:18:14.289Z,99996.28
2023-11-09T16:20:43.468Z,100000.60
2023-11-09T16:23:12.750Z,100002.27
2023-11-09T16:25:42.789Z,100008.70
2023-11-09T16:28:11.547Z,100004.99
2023-11-09T16:30:40.132Z,100008.83
2023-11-09T16:33:09.396Z,100006.64
2023-11-09T16:35:38.345Z,100009.63
2023-11-09T16:38:11.356Z,100012.95
2023-11-09T16:40:42.452Z,100009.76
2023-11-09T16:43:12.734Z,100015.78
2023-11-09T16:45:40.586Z,100017.68
2023-11-09T16:48:10.029Z,100022.16
2023-11-09T16:50:40.956Z,100025.75
2023-11-09T16:53:12.915Z,100025.30
2023-11-09T16:55:41.241Z,100028.21
2023-11-09T16:58:08.863Z,100034.33
2023-11-09T17:00:39.813Z,100032.58
2023-11-09T17:03:12.034Z,100033.38
2023-11-09T17:05:40.980Z,100033.61
2023-11-09T17:08:10.510Z,100034.92
2023-11-09T17:10:40.616Z,100037.18
2023-11-09T17:13:10.862Z,100039.96
2023-11-09T17:15:39.251Z,100040.15
2023-11-09T17:18:12.790Z,100035.59
2023-11-09T17:20:40.777Z,100041.45
2023-11-09T17:23:08.576Z,100042.82
2023-11-09T17:25:37.555Z,100042.42
2023-11-09T17:28:05.345Z,100044.92
2023-11-09T17:30:38.049Z,100043.94
2023-11-09T17:33:09.246Z,100044.05
2023-11-09T17:35:37.192Z,100044.03
2023-11-09T17:38:04.980Z,100043.48
2023-11-09T17:40:33.277Z,100043.23
2023-11-09T17:43:00.917Z,100041.17
2023-11-09T17:45:28.439Z,100040.32
2023-11-09T17:47:56.744Z,100041.02
2023-11-09T17:50:24.323Z,100045.61
2023-11-09T17:52:53.400Z,100047.91
2023-11-09T17:55:21.181Z,100049.55
2023-11-09T17:57:49.226Z,100048.34
2023-11-09T18:00:17.637Z,100053.20
2023-11-09T18:02:46.634Z,100054.65
2023-11-09T18:05:14.493Z,100049.16
2023-11-09T18:07:42.243Z,100046.57
2023-11-09T18:10:10.133Z,100047.01
2023-11-09T18:12:37.623Z,100048.95
2023-11-09T18:15:06.486Z,100047.80
2023-11-09T18:17:36.127Z,100048.45
2023-11-09T18:20:07.464Z,100053.75
2023-11-09T18:22:35.495Z,100059.15
2023-11-09T18:25:09.106Z,100061.58
2023-11-09T18:27:38.033Z,100065.06
2023-11-09T18:30:10.658Z,100070.23
2023-11-09T18:32:38.659Z,100071.05
2023-11-09T18:35:07.985Z,100072.70
2023-11-09T18:37:35.851Z,100078.79
2023-11-09T18:40:05.424Z,100083.22
2023-11-09T18:42:33.060Z,100088.38
2023-11-09T18:45:00.752Z,100087.67
2023-11-09T18:47:29.347Z,100087.48
2023-11-09T18:52:30.284Z,100085.70
2023-11-09T18:54:58.270Z,100086.87
2023-11-09T18:57:27.173Z,100090.17
2023-11-09T18:59:54.824Z,100092.33
2023-11-09T19:02:22.771Z,100096.55
2023-11-09T19:04:53.116Z,100094.52
2023-11-09T19:07:21.232Z,100095.73
2023-11-09T19:09:50.272Z,100099.11
2023-11-09T19:12:18.628Z,100095.42
2023-11-09T19:14:46.509Z,100094.95
2023-11-09T19:17:14.207Z,100091.25
2023-11-09T19:19:41.807Z,100089.00
2023-11-09T19:24:41.543Z,100086.30
2023-11-09T19:27:09.199Z,100085.11
2023-11-09T19:29:36.869Z,100086.25
2023-11-09T19:32:09.041Z,100085.01
2023-11-09T19:34:36.823Z,100087.04
2023-11-09T19:37:04.526Z,100090.15
2023-11-09T19:39:32.175Z,100096.32
2023-11-09T19:41:59.971Z,100094.38
2023-11-09T19:44:27.540Z,100098.09
2023-11-09T19:46:55.128Z,100102.52
2023-11-09T19:49:22.646Z,100103.36
2023-11-09T19:51:50.556Z,100102.81
2023-11-09T19:54:18.034Z,100102.09
2023-11-09T19:56:45.664Z,100103.41
2023-11-09T19:59:13.813Z,100107.06
2023-11-09T20:01:41.378Z,100104.80
2023-11-09T20:04:10.161Z,100109.45
2023-11-09T20:06:37.745Z,100108.80
2023-11-09T20:09:08.011Z,100111.27
2023-11-09T20:11:36.013Z,100111.69
2023-11-09T20:14:03.586Z,100109.78
2023-11-09T20:16:35.858Z,100112.57
2023-11-09T20:19:04.331Z,100112.98
2023-11-09T20:21:32.586Z,100113.77
2023-11-09T20:24:00.303Z,100112.02
2023-11-09T20:26:27.830Z,100118.56
2023-11-09T20:28:55.341Z,100115.25
2023-11-09T20:31:22.947Z,100110.64
2023-11-09T20:33:50.749Z,100112.43
2023-11-09T20:36:18.444Z,100106.68
2023-11-09T20:38:48.564Z,100102.48
2023-11-09T20:41:17.127Z,100102.50
2023-11-09T20:43:44.744Z,100101.90
2023-11-09T20:46:17.656Z,100100.88
2023-11-09T20:48:45.286Z,100101.98
2023-11-09T20:51:14.889Z,100101.00
2023-11-09T20:53:42.682Z,100105.95
2023-11-09T20:56:10.330Z,100110.27
2023-11-09T20:58:40.618Z,100112.05
2023-11-09T21:01:08.086Z,100111.92
2023-11-09T21:03:41.031Z,100116.71
2023-11-09T21:06:11.814Z,100114.45
2023-11-09T21:08:39.485Z,100112.66
2023-11-09T21:11:06.985Z,100111.42
2023-11-09T21:13:37.380Z,100115.45
2023-11-09T21:16:05.389Z,100116.84
2023-11-09T21:18:33.063Z,100112.56
2023-11-09T21:21:01.010Z,100112.80
2023-11-09T21:23:28.718Z,100113.98
2023-11-09T21:25:56.238Z,100108.88
2023-11-09T21:28:26.603Z,100108.52
2023-11-09T21:30:54.172Z,100107.89
2023-11-09T21:33:22.344Z,100117.33
2023-11-09T21:35:50.226Z,100119.06
2023-11-09T21:38:17.700Z,100113.07
2023-11-09T21:40:45.190Z,100115.75
2023-11-09T21:43:15.787Z,100116.84
2023-11-09T21:45:43.702Z,100116.16
2023-11-09T21:48:14.394Z,100117.25
2023-11-09T21:50:43.942Z,100122.13
2023-11-09T21:53:14.697Z,100122.58
2023-11-09T21:55:44.095Z,100119.17
2023-11-09T21:58:11.527Z,100119.95
2023-11-09T22:00:39.486Z,100123.13
2023-11-09T22:03:07.197Z,100127.80
2023-11-09T22:05:34.811Z,100126.71
2023-11-09T22:08:05.966Z,100129.98
2023-11-09T22:10:34.274Z,100126.14
2023-11-09T22:13:02.073Z,100133.91
2023-11-09T22:15:32.487Z,100132.04
2023-11-09T22:20:24.070Z,100127.70
2023-11-09T22:22:51.831Z,100130.09
2023-11-09T22:25:20.408Z,100127.20
2023-11-09T22:27:48.101Z,100129.42
2023-11-09T22:30:15.784Z,100129.40
2023-11-09T22:32:43.375Z,100133.20
2023-11-09T22:35:11.407Z,100135.06
2023-11-09T22:37:38.905Z,100132.35
2023-11-09T22:40:08.644Z,100133.95
2023-11-09T22:42:36.181Z,100129.22
2023-11-09T22:45:03.914Z,100128.71
2023-11-09T22:47:31.636Z,100127.64
2023-11-09T22:49:59.496Z,100134.05
2023-11-09T22:52:26.945Z,100135.95
2023-11-09T22:54:54.439Z,100136.48
2023-11-09T22:57:21.958Z,100135.67
2023-11-09T22:59:49.462Z,100133.73
2023-11-09T23:02:17.264Z,100130.25
2023-11-09T23:04:44.804Z,100134.20
2023-11-09T23:07:12.237Z,100132.29
2023-11-09T23:09:39.764Z,100132.41
2023-11-09T23:12:08.527Z,100131.27
2023-11-09T23:14:36.034Z,100134.31
2023-11-09T23:17:04.441Z,100132.59
2023-11-09T23:19:31.998Z,100128.91
2023-11-09T23:21:59.551Z,100126.82
2023-11-09T23:24:27.054Z,100120.48
2023-11-09T23:26:54.711Z,100118.64
2023-11-09T23:29:22.310Z,100117.85
2023-11-09T23:31:49.792Z,100122.01
2023-11-09T23:34:17.237Z,100127.45
2023-11-09T23:36:44.738Z,100129.88
2023-11-09T23:39:12.317Z,100125.39
2023-11-09T23:41:41.031Z,100124.45
2023-11-09T23:44:10.918Z,100125.46
2023-11-09T23:46:38.796Z,100130.56
2023-11-09T23:49:06.533Z,100129.88
2023-11-09T23:51:34.153Z,100135.89
2023-11-09T23:54:01.610Z,100133.29
2023-11-09T23:56:29.159Z,100135.45
2023-11-09T23:58:56.588Z,100137.94
